ZSHC

Hangzhou Xiaoshan International Airport

Hangzhou, China
TAF ZSHC 220904Z 2212/2312 07003MPS 3000 BR BKN026 TX27/2306Z TN22/2221Z
Issued Valid From Valid To
Sep-22 @ 09:04 UTC
(6 hours ago)
Sep-22 @ 12:00 UTC
(3 hours ago)
Sep-23 @ 12:00 UTC
(in 21 hours)
to
TAF ZSHC 220904Z 2212/2312 07003MPS 3000 BR BKN026 TX27/2306Z TN22/2221Z
Issued Sep-22 @ 09:04 UTC
(6 hours ago)
Valid From Sep-22 @ 12:00 UTC
(3 hours ago)
Valid To Sep-23 @ 12:00 UTC
(in 21 hours)
-